sensor_id;sensor_type;location;lat;lon;timestamp;temperature;humidity
1411;DHT22;700;51.906;8.404;2024-01-30T00:03:20;7.70;99.90
1411;DHT22;700;51.906;8.404;2024-01-30T00:08:23;7.70;99.90
1411;DHT22;700;51.906;8.404;2024-01-30T00:13:24;7.70;99.90
1411;DHT22;700;51.906;8.404;2024-01-30T00:18:27;7.70;99.90
1411;DHT22;700;51.906;8.404;2024-01-30T00:23:30;7.60;99.90
1411;DHT22;700;51.906;8.404;2024-01-30T00:28:31;7.80;99.90
1411;DHT22;700;51.906;8.404;2024-01-30T00:33:31;7.60;99.90
1411;DHT22;700;51.906;8.404;2024-01-30T00:38:35;7.60;99.90
1411;DHT22;700;51.906;8.404;2024-01-30T00:43:36;7.60;99.90
1411;DHT22;700;51.906;8.404;2024-01-30T00:48:37;7.70;99.90
1411;DHT22;700;51.906;8.404;2024-01-30T00:53:37;7.60;99.90
1411;DHT22;700;51.906;8.404;2024-01-30T00:58:42;7.60;99.90
1411;DHT22;700;51.906;8.404;2024-01-30T01:03:42;7.70;99.90
1411;DHT22;700;51.906;8.404;2024-01-30T01:08:46;7.50;99.90
1411;DHT22;700;51.906;8.404;2024-01-30T01:13:52;7.50;99.90
1411;DHT22;700;51.906;8.404;2024-01-30T01:18:55;7.40;99.90
1411;DHT22;700;51.906;8.404;2024-01-30T01:23:58;7.50;99.90
1411;DHT22;700;51.906;8.404;2024-01-30T01:28:59;7.20;99.90
1411;DHT22;700;51.906;8.404;2024-01-30T01:33:59;7.30;99.90
1411;DHT22;700;51.906;8.404;2024-01-30T01:39:00;7.20;99.90
1411;DHT22;700;51.906;8.404;2024-01-30T01:44:01;7.20;99.90
1411;DHT22;700;51.906;8.404;2024-01-30T01:49:07;7.50;99.90
1411;DHT22;700;51.906;8.404;2024-01-30T01:54:14;7.30;99.90
1411;DHT22;700;51.906;8.404;2024-01-30T01:59:17;7.20;99.90
1411;DHT22;700;51.906;8.404;2024-01-30T02:04:18;7.10;99.90
1411;DHT22;700;51.906;8.404;2024-01-30T02:09:21;7.30;99.90
1411;DHT22;700;51.906;8.404;2024-01-30T02:14:22;7.30;99.90
1411;DHT22;700;51.906;8.404;2024-01-30T02:19:23;7.30;99.90
1411;DHT22;700;51.906;8.404;2024-01-30T02:24:26;7.30;99.90
1411;DHT22;700;51.906;8.404;2024-01-30T02:29:29;7.10;99.90
1411;DHT22;700;51.906;8.404;2024-01-30T02:34:32;6.90;99.90
1411;DHT22;700;51.906;8.404;2024-01-30T02:39:32;7.00;99.90
1411;DHT22;700;51.906;8.404;2024-01-30T02:44:33;6.90;99.90
1411;DHT22;700;51.906;8.404;2024-01-30T02:49:36;6.90;99.90
1411;DHT22;700;51.906;8.404;2024-01-30T02:54:39;7.20;99.90
1411;DHT22;700;51.906;8.404;2024-01-30T02:59:39;7.20;99.90
1411;DHT22;700;51.906;8.404;2024-01-30T03:04:43;7.50;99.90
1411;DHT22;700;51.906;8.404;2024-01-30T03:09:44;7.50;99.90
1411;DHT22;700;51.906;8.404;2024-01-30T03:14:44;7.70;99.90
1411;DHT22;700;51.906;8.404;2024-01-30T03:19:45;7.50;99.90
1411;DHT22;700;51.906;8.404;2024-01-30T03:24:46;7.70;99.90
1411;DHT22;700;51.906;8.404;2024-01-30T03:29:48;7.60;99.90
1411;DHT22;700;51.906;8.404;2024-01-30T03:34:49;7.60;99.90
1411;DHT22;700;51.906;8.404;2024-01-30T03:39:50;7.70;99.90
1411;DHT22;700;51.906;8.404;2024-01-30T03:44:51;7.90;99.90
1411;DHT22;700;51.906;8.404;2024-01-30T03:49:57;7.80;99.90
1411;DHT22;700;51.906;8.404;2024-01-30T03:54:58;7.80;99.90
1411;DHT22;700;51.906;8.404;2024-01-30T04:00:01;7.80;99.90
1411;DHT22;700;51.906;8.404;2024-01-30T04:05:04;7.60;99.90
1411;DHT22;700;51.906;8.404;2024-01-30T04:10:05;7.70;99.90
1411;DHT22;700;51.906;8.404;2024-01-30T04:15:06;7.70;99.90
1411;DHT22;700;51.906;8.404;2024-01-30T04:20:11;7.80;99.90
1411;DHT22;700;51.906;8.404;2024-01-30T04:25:14;7.70;99.90
1411;DHT22;700;51.906;8.404;2024-01-30T04:30:19;7.50;99.90
1411;DHT22;700;51.906;8.404;2024-01-30T04:35:20;7.90;99.90
1411;DHT22;700;51.906;8.404;2024-01-30T04:40:23;7.80;99.90
1411;DHT22;700;51.906;8.404;2024-01-30T04:45:26;7.90;99.90
1411;DHT22;700;51.906;8.404;2024-01-30T04:50:27;7.70;99.90
1411;DHT22;700;51.906;8.404;2024-01-30T04:55:27;7.90;99.90
1411;DHT22;700;51.906;8.404;2024-01-30T05:00:30;7.80;99.90
1411;DHT22;700;51.906;8.404;2024-01-30T05:05:31;7.40;99.90
1411;DHT22;700;51.906;8.404;2024-01-30T05:10:31;7.40;99.90
1411;DHT22;700;51.906;8.404;2024-01-30T05:15:35;7.30;99.90
1411;DHT22;700;51.906;8.404;2024-01-30T05:20:37;7.80;99.90
1411;DHT22;700;51.906;8.404;2024-01-30T05:25:38;7.50;99.90
1411;DHT22;700;51.906;8.404;2024-01-30T05:30:41;7.60;99.90
1411;DHT22;700;51.906;8.404;2024-01-30T05:35:44;7.60;99.90
1411;DHT22;700;51.906;8.404;2024-01-30T05:40:45;7.70;99.90
1411;DHT22;700;51.906;8.404;2024-01-30T05:45:48;7.60;99.90
1411;DHT22;700;51.906;8.404;2024-01-30T05:50:49;7.70;99.90
1411;DHT22;700;51.906;8.404;2024-01-30T05:55:52;7.70;99.90
1411;DHT22;700;51.906;8.404;2024-01-30T06:00:55;7.50;99.90
1411;DHT22;700;51.906;8.404;2024-01-30T06:05:55;7.60;99.90
1411;DHT22;700;51.906;8.404;2024-01-30T06:10:56;7.60;99.90
1411;DHT22;700;51.906;8.404;2024-01-30T06:15:57;7.80;99.90
1411;DHT22;700;51.906;8.404;2024-01-30T06:20:57;7.90;99.90
1411;DHT22;700;51.906;8.404;2024-01-30T06:26:00;8.00;99.90
1411;DHT22;700;51.906;8.404;2024-01-30T06:31:01;7.90;99.90
1411;DHT22;700;51.906;8.404;2024-01-30T06:36:02;8.10;99.90
1411;DHT22;700;51.906;8.404;2024-01-30T06:41:03;8.00;99.90
1411;DHT22;700;51.906;8.404;2024-01-30T06:46:05;8.10;99.90
1411;DHT22;700;51.906;8.404;2024-01-30T06:51:06;8.00;99.90
1411;DHT22;700;51.906;8.404;2024-01-30T06:56:09;8.20;99.90
1411;DHT22;700;51.906;8.404;2024-01-30T07:01:10;8.30;99.90
1411;DHT22;700;51.906;8.404;2024-01-30T07:06:10;8.50;99.90
1411;DHT22;700;51.906;8.404;2024-01-30T07:11:21;8.60;99.90
1411;DHT22;700;51.906;8.404;2024-01-30T07:16:25;8.70;99.90
1411;DHT22;700;51.906;8.404;2024-01-30T07:21:30;8.70;99.90
1411;DHT22;700;51.906;8.404;2024-01-30T07:26:31;8.80;99.90
1411;DHT22;700;51.906;8.404;2024-01-30T07:31:34;8.70;99.90
1411;DHT22;700;51.906;8.404;2024-01-30T07:36:36;8.60;99.90
1411;DHT22;700;51.906;8.404;2024-01-30T07:41:37;8.90;99.90
1411;DHT22;700;51.906;8.404;2024-01-30T07:46:38;8.90;99.90
1411;DHT22;700;51.906;8.404;2024-01-30T07:51:38;9.00;99.90
1411;DHT22;700;51.906;8.404;2024-01-30T07:56:40;9.30;99.90
1411;DHT22;700;51.906;8.404;2024-01-30T08:01:41;9.60;99.90
1411;DHT22;700;51.906;8.404;2024-01-30T08:06:44;9.50;99.90
1411;DHT22;700;51.906;8.404;2024-01-30T08:11:45;9.70;99.90
1411;DHT22;700;51.906;8.404;2024-01-30T08:16:45;9.70;99.90
1411;DHT22;700;51.906;8.404;2024-01-30T08:21:46;10.00;99.90
1411;DHT22;700;51.906;8.404;2024-01-30T08:26:49;9.60;99.90
1411;DHT22;700;51.906;8.404;2024-01-30T08:31:52;10.10;99.90
1411;DHT22;700;51.906;8.404;2024-01-30T08:36:53;10.30;99.90
1411;DHT22;700;51.906;8.404;2024-01-30T08:41:54;10.70;99.90
1411;DHT22;700;51.906;8.404;2024-01-30T08:46:57;11.10;99.90
1411;DHT22;700;51.906;8.404;2024-01-30T08:51:57;11.40;99.90
1411;DHT22;700;51.906;8.404;2024-01-30T08:56:58;11.60;99.90
1411;DHT22;700;51.906;8.404;2024-01-30T09:01:59;12.00;99.90
1411;DHT22;700;51.906;8.404;2024-01-30T09:07:04;12.10;99.90
1411;DHT22;700;51.906;8.404;2024-01-30T09:12:09;12.40;99.90
1411;DHT22;700;51.906;8.404;2024-01-30T09:17:12;13.20;99.90
1411;DHT22;700;51.906;8.404;2024-01-30T09:22:13;13.50;99.90
1411;DHT22;700;51.906;8.404;2024-01-30T09:27:14;13.50;99.90
1411;DHT22;700;51.906;8.404;2024-01-30T09:32:17;14.10;99.90
1411;DHT22;700;51.906;8.404;2024-01-30T09:37:19;14.40;99.90
1411;DHT22;700;51.906;8.404;2024-01-30T09:42:35;14.70;99.90
1411;DHT22;700;51.906;8.404;2024-01-30T09:47:43;14.00;99.90
1411;DHT22;700;51.906;8.404;2024-01-30T09:52:49;14.40;99.90
1411;DHT22;700;51.906;8.404;2024-01-30T09:57:51;14.60;99.90
1411;DHT22;700;51.906;8.404;2024-01-30T10:02:52;14.70;99.90
1411;DHT22;700;51.906;8.404;2024-01-30T10:07:54;14.40;99.90
1411;DHT22;700;51.906;8.404;2024-01-30T10:12:57;14.00;99.90
1411;DHT22;700;51.906;8.404;2024-01-30T10:18:00;14.40;99.90
1411;DHT22;700;51.906;8.404;2024-01-30T10:23:04;15.30;99.90
1411;DHT22;700;51.906;8.404;2024-01-30T10:28:08;15.50;99.90
1411;DHT22;700;51.906;8.404;2024-01-30T10:33:09;15.80;99.90
1411;DHT22;700;51.906;8.404;2024-01-30T10:38:14;15.90;99.90
1411;DHT22;700;51.906;8.404;2024-01-30T10:43:22;15.70;99.90
1411;DHT22;700;51.906;8.404;2024-01-30T10:48:29;16.20;99.90
1411;DHT22;700;51.906;8.404;2024-01-30T10:53:31;17.00;99.90
1411;DHT22;700;51.906;8.404;2024-01-30T10:58:31;17.60;99.90
1411;DHT22;700;51.906;8.404;2024-01-30T11:03:33;17.90;99.90
1411;DHT22;700;51.906;8.404;2024-01-30T11:08:38;17.00;99.90
1411;DHT22;700;51.906;8.404;2024-01-30T11:13:40;15.90;99.90
1411;DHT22;700;51.906;8.404;2024-01-30T11:18:50;15.30;99.90
1411;DHT22;700;51.906;8.404;2024-01-30T11:23:50;15.20;99.90
1411;DHT22;700;51.906;8.404;2024-01-30T11:28:55;15.50;99.90
1411;DHT22;700;51.906;8.404;2024-01-30T11:33:56;15.70;99.90
1411;DHT22;700;51.906;8.404;2024-01-30T11:38:58;16.00;99.90
1411;DHT22;700;51.906;8.404;2024-01-30T11:44:03;16.20;99.90
1411;DHT22;700;51.906;8.404;2024-01-30T11:49:07;15.90;99.90
1411;DHT22;700;51.906;8.404;2024-01-30T11:54:08;15.70;99.90
1411;DHT22;700;51.906;8.404;2024-01-30T11:59:11;15.40;99.90
1411;DHT22;700;51.906;8.404;2024-01-30T12:04:15;15.60;99.90
1411;DHT22;700;51.906;8.404;2024-01-30T12:09:18;15.20;99.90
1411;DHT22;700;51.906;8.404;2024-01-30T12:14:19;15.00;99.90
1411;DHT22;700;51.906;8.404;2024-01-30T12:19:27;15.00;99.90
1411;DHT22;700;51.906;8.404;2024-01-30T12:24:28;15.10;99.90
1411;DHT22;700;51.906;8.404;2024-01-30T12:29:32;14.90;99.90
1411;DHT22;700;51.906;8.404;2024-01-30T12:34:40;15.10;99.90
1411;DHT22;700;51.906;8.404;2024-01-30T12:39:43;15.00;99.90
1411;DHT22;700;51.906;8.404;2024-01-30T12:44:44;15.50;99.90
1411;DHT22;700;51.906;8.404;2024-01-30T12:49:47;15.40;99.90
1411;DHT22;700;51.906;8.404;2024-01-30T12:54:48;15.50;99.90
1411;DHT22;700;51.906;8.404;2024-01-30T12:59:49;15.60;99.90
1411;DHT22;700;51.906;8.404;2024-01-30T13:04:52;15.50;99.90
1411;DHT22;700;51.906;8.404;2024-01-30T13:09:56;15.60;99.90
1411;DHT22;700;51.906;8.404;2024-01-30T13:14:57;15.60;99.90
1411;DHT22;700;51.906;8.404;2024-01-30T13:19:57;15.60;99.90
1411;DHT22;700;51.906;8.404;2024-01-30T13:25:00;15.80;99.90
1411;DHT22;700;51.906;8.404;2024-01-30T13:30:04;16.00;99.90
1411;DHT22;700;51.906;8.404;2024-01-30T13:35:05;16.00;99.90
1411;DHT22;700;51.906;8.404;2024-01-30T13:40:06;15.90;99.90
1411;DHT22;700;51.906;8.404;2024-01-30T13:45:10;16.00;99.90
1411;DHT22;700;51.906;8.404;2024-01-30T13:50:10;16.10;99.90
1411;DHT22;700;51.906;8.404;2024-01-30T13:55:15;15.70;99.90
1411;DHT22;700;51.906;8.404;2024-01-30T14:00:16;15.80;99.90
1411;DHT22;700;51.906;8.404;2024-01-30T14:05:17;15.50;99.90
1411;DHT22;700;51.906;8.404;2024-01-30T14:10:18;15.50;99.90
1411;DHT22;700;51.906;8.404;2024-01-30T14:15:19;15.30;99.90
1411;DHT22;700;51.906;8.404;2024-01-30T14:20:20;15.10;99.90
1411;DHT22;700;51.906;8.404;2024-01-30T14:25:21;14.90;99.90
1411;DHT22;700;51.906;8.404;2024-01-30T14:30:21;15.00;99.90
1411;DHT22;700;51.906;8.404;2024-01-30T14:35:24;15.00;99.90
1411;DHT22;700;51.906;8.404;2024-01-30T14:40:27;15.20;99.90
1411;DHT22;700;51.906;8.404;2024-01-30T14:45:30;15.20;99.90
1411;DHT22;700;51.906;8.404;2024-01-30T14:50:34;15.00;99.90
1411;DHT22;700;51.906;8.404;2024-01-30T14:55:37;15.00;99.90
1411;DHT22;700;51.906;8.404;2024-01-30T15:00:40;15.00;99.90
1411;DHT22;700;51.906;8.404;2024-01-30T15:05:41;14.90;99.90
1411;DHT22;700;51.906;8.404;2024-01-30T15:10:41;15.10;99.90
1411;DHT22;700;51.906;8.404;2024-01-30T15:15:42;14.90;99.90
1411;DHT22;700;51.906;8.404;2024-01-30T15:20:45;14.60;99.90
1411;DHT22;700;51.906;8.404;2024-01-30T15:25:46;14.60;99.90
1411;DHT22;700;51.906;8.404;2024-01-30T15:30:46;14.60;99.90
1411;DHT22;700;51.906;8.404;2024-01-30T15:35:47;14.70;99.90
1411;DHT22;700;51.906;8.404;2024-01-30T15:40:50;14.70;99.90
1411;DHT22;700;51.906;8.404;2024-01-30T15:45:53;14.80;99.90
1411;DHT22;700;51.906;8.404;2024-01-30T15:50:54;14.80;99.90
1411;DHT22;700;51.906;8.404;2024-01-30T15:55:54;14.70;99.90
1411;DHT22;700;51.906;8.404;2024-01-30T16:00:55;14.40;99.90
1411;DHT22;700;51.906;8.404;2024-01-30T16:05:58;14.00;99.90
1411;DHT22;700;51.906;8.404;2024-01-30T16:10:59;13.80;99.90
1411;DHT22;700;51.906;8.404;2024-01-30T16:15:59;13.60;99.90
1411;DHT22;700;51.906;8.404;2024-01-30T16:21:01;13.70;99.90
1411;DHT22;700;51.906;8.404;2024-01-30T16:26:04;13.50;99.90
1411;DHT22;700;51.906;8.404;2024-01-30T16:31:04;13.40;99.90
1411;DHT22;700;51.906;8.404;2024-01-30T16:36:05;13.10;99.90
1411;DHT22;700;51.906;8.404;2024-01-30T16:41:08;13.10;99.90
1411;DHT22;700;51.906;8.404;2024-01-30T16:46:11;13.20;99.90
1411;DHT22;700;51.906;8.404;2024-01-30T16:51:11;13.30;99.90
1411;DHT22;700;51.906;8.404;2024-01-30T16:56:17;13.50;99.90
1411;DHT22;700;51.906;8.404;2024-01-30T17:01:20;13.70;99.90
1411;DHT22;700;51.906;8.404;2024-01-30T17:06:21;13.90;99.90
1411;DHT22;700;51.906;8.404;2024-01-30T17:11:22;14.00;99.90
1411;DHT22;700;51.906;8.404;2024-01-30T17:16:25;13.90;99.90
1411;DHT22;700;51.906;8.404;2024-01-30T17:21:25;13.90;99.90
1411;DHT22;700;51.906;8.404;2024-01-30T17:26:29;13.80;99.90
1411;DHT22;700;51.906;8.404;2024-01-30T17:31:31;13.70;99.90
1411;DHT22;700;51.906;8.404;2024-01-30T17:36:34;13.70;99.90
1411;DHT22;700;51.906;8.404;2024-01-30T17:41:35;13.50;99.90
1411;DHT22;700;51.906;8.404;2024-01-30T17:46:38;13.20;99.90
1411;DHT22;700;51.906;8.404;2024-01-30T17:51:39;12.80;99.90
1411;DHT22;700;51.906;8.404;2024-01-30T17:56:42;12.70;99.90
1411;DHT22;700;51.906;8.404;2024-01-30T18:01:46;12.50;99.90
1411;DHT22;700;51.906;8.404;2024-01-30T18:06:52;12.40;99.90
1411;DHT22;700;51.906;8.404;2024-01-30T18:11:54;12.30;99.90
1411;DHT22;700;51.906;8.404;2024-01-30T18:16:57;12.20;99.90
1411;DHT22;700;51.906;8.404;2024-01-30T18:21:57;12.10;99.90
1411;DHT22;700;51.906;8.404;2024-01-30T18:26:58;12.00;99.90
1411;DHT22;700;51.906;8.404;2024-01-30T18:31:58;11.90;99.90
1411;DHT22;700;51.906;8.404;2024-01-30T18:36:59;11.90;99.90
1411;DHT22;700;51.906;8.404;2024-01-30T18:42:03;12.10;99.90
1411;DHT22;700;51.906;8.404;2024-01-30T18:47:04;12.10;99.90
1411;DHT22;700;51.906;8.404;2024-01-30T18:52:07;12.20;99.90
1411;DHT22;700;51.906;8.404;2024-01-30T18:57:08;12.30;99.90
1411;DHT22;700;51.906;8.404;2024-01-30T19:02:08;12.30;99.90
1411;DHT22;700;51.906;8.404;2024-01-30T19:07:09;12.30;99.90
1411;DHT22;700;51.906;8.404;2024-01-30T19:12:10;12.20;99.90
1411;DHT22;700;51.906;8.404;2024-01-30T19:17:13;12.30;99.90
1411;DHT22;700;51.906;8.404;2024-01-30T19:22:15;12.30;99.90
1411;DHT22;700;51.906;8.404;2024-01-30T19:27:16;12.70;99.90
1411;DHT22;700;51.906;8.404;2024-01-30T19:32:16;12.80;99.90
1411;DHT22;700;51.906;8.404;2024-01-30T19:37:18;12.60;99.90
1411;DHT22;700;51.906;8.404;2024-01-30T19:42:26;12.30;99.90
1411;DHT22;700;51.906;8.404;2024-01-30T19:47:27;12.00;99.90
1411;DHT22;700;51.906;8.404;2024-01-30T19:52:27;11.90;99.90
1411;DHT22;700;51.906;8.404;2024-01-30T19:57:28;11.70;99.90
1411;DHT22;700;51.906;8.404;2024-01-30T20:02:29;11.70;99.90
1411;DHT22;700;51.906;8.404;2024-01-30T20:07:29;11.60;99.90
1411;DHT22;700;51.906;8.404;2024-01-30T20:12:33;11.60;99.90
1411;DHT22;700;51.906;8.404;2024-01-30T20:17:36;11.60;99.90
1411;DHT22;700;51.906;8.404;2024-01-30T20:22:37;11.70;99.90
1411;DHT22;700;51.906;8.404;2024-01-30T20:27:38;11.40;99.90
1411;DHT22;700;51.906;8.404;2024-01-30T20:32:38;11.50;99.90
1411;DHT22;700;51.906;8.404;2024-01-30T20:37:39;11.50;99.90
1411;DHT22;700;51.906;8.404;2024-01-30T20:42:40;11.50;99.90
1411;DHT22;700;51.906;8.404;2024-01-30T20:47:40;11.60;99.90
1411;DHT22;700;51.906;8.404;2024-01-30T20:52:43;11.20;99.90
1411;DHT22;700;51.906;8.404;2024-01-30T20:57:47;11.30;99.90
1411;DHT22;700;51.906;8.404;2024-01-30T21:02:47;11.40;99.90
1411;DHT22;700;51.906;8.404;2024-01-30T21:07:49;11.40;99.90
1411;DHT22;700;51.906;8.404;2024-01-30T21:12:50;11.40;99.90
1411;DHT22;700;51.906;8.404;2024-01-30T21:17:51;11.50;99.90
1411;DHT22;700;51.906;8.404;2024-01-30T21:22:52;11.50;99.90
1411;DHT22;700;51.906;8.404;2024-01-30T21:27:54;11.40;99.90
1411;DHT22;700;51.906;8.404;2024-01-30T21:32:54;11.20;99.90
1411;DHT22;700;51.906;8.404;2024-01-30T21:37:55;11.20;99.90
1411;DHT22;700;51.906;8.404;2024-01-30T21:42:57;11.20;99.90
1411;DHT22;700;51.906;8.404;2024-01-30T21:47:58;11.20;99.90
1411;DHT22;700;51.906;8.404;2024-01-30T21:53:01;11.30;99.90
1411;DHT22;700;51.906;8.404;2024-01-30T21:58:04;11.20;99.90
1411;DHT22;700;51.906;8.404;2024-01-30T22:03:07;11.20;99.90
1411;DHT22;700;51.906;8.404;2024-01-30T22:08:10;11.00;99.90
1411;DHT22;700;51.906;8.404;2024-01-30T22:13:10;10.90;99.90
1411;DHT22;700;51.906;8.404;2024-01-30T22:18:11;10.90;99.90
1411;DHT22;700;51.906;8.404;2024-01-30T22:23:12;10.80;99.90
1411;DHT22;700;51.906;8.404;2024-01-30T22:28:13;10.90;99.90
1411;DHT22;700;51.906;8.404;2024-01-30T22:33:14;11.00;99.90
1411;DHT22;700;51.906;8.404;2024-01-30T22:38:15;10.90;99.90
1411;DHT22;700;51.906;8.404;2024-01-30T22:43:20;11.00;99.90
1411;DHT22;700;51.906;8.404;2024-01-30T22:48:20;11.10;99.90
1411;DHT22;700;51.906;8.404;2024-01-30T22:53:23;11.10;99.90
1411;DHT22;700;51.906;8.404;2024-01-30T22:58:24;10.80;99.90
1411;DHT22;700;51.906;8.404;2024-01-30T23:03:25;10.80;99.90
1411;DHT22;700;51.906;8.404;2024-01-30T23:08:26;10.80;99.90
1411;DHT22;700;51.906;8.404;2024-01-30T23:13:27;10.80;99.90
1411;DHT22;700;51.906;8.404;2024-01-30T23:18:28;10.80;99.90
1411;DHT22;700;51.906;8.404;2024-01-30T23:23:31;10.80;99.90
1411;DHT22;700;51.906;8.404;2024-01-30T23:28:31;10.90;99.90
1411;DHT22;700;51.906;8.404;2024-01-30T23:33:32;10.90;99.90
1411;DHT22;700;51.906;8.404;2024-01-30T23:38:32;10.90;99.90
1411;DHT22;700;51.906;8.404;2024-01-30T23:43:33;10.90;99.90
1411;DHT22;700;51.906;8.404;2024-01-30T23:48:36;10.80;99.90
1411;DHT22;700;51.906;8.404;2024-01-30T23:53:37;10.80;99.90
1411;DHT22;700;51.906;8.404;2024-01-30T23:58:40;10.90;99.90
